»·PEaware :: N298MC KAWO-KBLI

N298MC :: KAWO-KBLI

FLIGHT INFORMATION

Flight Status: Arrived
Operator: Privately registered:
United States
More flights under this callsign
Pilot: Anonymous 29061 (29061)
Aircraft: CESSNA 172 SKYHAWK
(C172)
More flights by this aircraft type
Origin: KAWO Arlington Mun
United States
Destination: KBLI Bellingham Intl
United States
More flights between these airports :: More routes between these airports
Route: MADEE HUH
File this flight plan on PilotEdge
Remarks:
Altitude:
(Current/Filed)
6,000ft
Speed:
(Current/Filed)
110kts
Departed: 25-Oct-22 08:34 AM
Arrived: 25-Oct-22 09:26 AM
Distance/Time
Traveled:
41nm/0:52
Distance/Time
To Go:
Arrived

Flight Plot

Page will automatically refresh every two minutes.

Flight plan parsing failed; only flown route is shown


Map Options




Map Legend


Flown Route
Filed Route
Departure Airport
Arrival Airport
Navaid (VOR, NDB)
Fix

Horizontal Profiles

Position Reports

Time Latitude Longitude Heading Altitude Ground
Speed
25-Oct-22 08:26 48.160128 -122.153870 88 140ft 0kts
25-Oct-22 08:27 48.160128 -122.153863 88 140ft 0kts
25-Oct-22 08:28 48.160128 -122.153857 88 140ft 0kts
25-Oct-22 08:29 48.160128 -122.153850 88 140ft 0kts
25-Oct-22 08:30 48.160128 -122.153843 88 140ft 0kts
25-Oct-22 08:31 48.168087 -122.156616 181 140ft 0kts
25-Oct-22 08:32 48.167595 -122.156599 178 140ft 32kts
25-Oct-22 08:34 48.143819 -122.154972 178 682ft 102kts
25-Oct-22 08:35 48.114470 -122.152303 177 1385ft 107kts
25-Oct-22 08:36 48.085007 -122.148456 177 2087ft 103kts
25-Oct-22 08:37 48.057012 -122.143238 176 2782ft 100kts
25-Oct-22 08:38 48.037408 -122.157267 283 3271ft 104kts
25-Oct-22 08:39 48.064567 -122.178188 332 3803ft 113kts
25-Oct-22 08:40 48.094774 -122.194201 332 4302ft 117kts
25-Oct-22 08:41 48.125633 -122.209653 332 4805ft 115kts
25-Oct-22 08:42 48.155910 -122.223956 332 5303ft 112kts
25-Oct-22 08:43 48.185353 -122.237777 332 5797ft 110kts
25-Oct-22 08:44 48.215860 -122.252388 332 6002ft 122kts
25-Oct-22 08:45 48.248146 -122.268349 332 5987ft 116kts
25-Oct-22 08:46 48.278090 -122.282544 332 5999ft 111kts
25-Oct-22 08:47 48.307495 -122.296329 332 5999ft 111kts
25-Oct-22 08:48 48.335523 -122.313184 317 6005ft 105kts
25-Oct-22 08:49 48.357642 -122.340704 310 6002ft 103kts
25-Oct-22 08:50 48.379812 -122.368331 310 5998ft 103kts
25-Oct-22 08:51 48.404183 -122.391969 327 6007ft 107kts
25-Oct-22 08:52 48.431778 -122.408982 327 6000ft 107kts
25-Oct-22 08:53 48.459294 -122.425856 327 5997ft 105kts
25-Oct-22 08:54 48.489380 -122.432505 347 5996ft 111kts
25-Oct-22 08:55 48.520104 -122.434840 347 5983ft 111kts
25-Oct-22 08:55 48.545666 -122.436745 347 5973ft 109kts
25-Oct-22 08:57 48.580777 -122.439184 347 5977ft 107kts
25-Oct-22 08:58 48.609895 -122.443485 341 5985ft 104kts
25-Oct-22 08:59 48.638502 -122.449572 341 5980ft 103kts
25-Oct-22 09:00 48.666857 -122.455490 341 5973ft 102kts
25-Oct-22 09:00 48.690182 -122.460288 341 5966ft 101kts
25-Oct-22 09:01 48.718258 -122.466060 341 5952ft 102kts
25-Oct-22 09:03 48.751136 -122.472891 341 5943ft 102kts
25-Oct-22 09:04 48.779340 -122.478837 341 5941ft 104kts
25-Oct-22 09:04 48.803164 -122.484579 338 5941ft 103kts
25-Oct-22 09:05 48.831726 -122.492981 338 5943ft 105kts
25-Oct-22 09:06 48.861104 -122.502297 332 5726ft 112kts
25-Oct-22 09:07 48.891209 -122.516933 332 5220ft 112kts
25-Oct-22 09:08 48.919904 -122.533496 328 4706ft 110kts
25-Oct-22 09:09 48.948437 -122.550977 327 4216ft 111kts
25-Oct-22 09:10 48.978466 -122.555858 28 3711ft 123kts
25-Oct-22 09:11 49.008871 -122.535989 1 3232ft 118kts
25-Oct-22 09:12 49.041633 -122.532534 356 2744ft 118kts
25-Oct-22 09:13 49.046856 -122.560227 197 2207ft 97kts
25-Oct-22 09:14 49.028782 -122.532998 142 1913ft 93kts
25-Oct-22 09:15 49.005417 -122.532585 185 2008ft 92kts
25-Oct-22 09:16 48.979938 -122.535813 185 1989ft 84kts
25-Oct-22 09:17 48.957198 -122.538033 179 2000ft 80kts
25-Oct-22 09:18 48.934691 -122.537725 181 2000ft 80kts
25-Oct-22 09:19 48.912158 -122.537721 181 2001ft 80kts
25-Oct-22 09:20 48.889747 -122.538212 183 2002ft 80kts
25-Oct-22 09:21 48.867089 -122.538777 181 1870ft 84kts
25-Oct-22 09:22 48.843783 -122.538356 175 1525ft 83kts
25-Oct-22 09:23 48.822186 -122.538012 178 1054ft 68kts
25-Oct-22 09:24 48.805927 -122.537791 179 445ft 51kts
25-Oct-22 09:25 48.796527 -122.537454 168 173ft 6kts
25-Oct-22 09:26 48.795745 -122.534326 145 173ft 0kts
25-Oct-22 09:27 48.795742 -122.534323 145 173ft 0kts
25-Oct-22 09:28 48.795742 -122.534323 145 173ft 0kts
25-Oct-22 09:29 48.795742 -122.534323 145 173ft 0kts
25-Oct-22 09:30 48.795742 -122.534323 145 173ft 0kts
25-Oct-22 09:31 48.795742 -122.534323 145 173ft 0kts
25-Oct-22 09:32 48.795742 -122.534323 145 173ft 0kts
25-Oct-22 09:33 48.795742 -122.534323 145 173ft 0kts
25-Oct-22 09:34 48.795742 -122.534323 145 173ft 0kts
25-Oct-22 09:35 48.795742 -122.534323 145 173ft 0kts
25-Oct-22 09:36 48.795742 -122.534323 145 173ft 0kts
25-Oct-22 09:37 48.795742 -122.534323 145 173ft 0kts
25-Oct-22 09:38 48.795742 -122.534323 145 173ft 0kts
25-Oct-22 09:39 48.795742 -122.534323 145 173ft 0kts

Navigation Log

Ident Type
Flight plan parsing failed, navigation log unavailable